Time;durP1;ratioP1;P1;durP2;ratioP2;P2;SDS_P1;SDS_P2;PMS_P1;PMS_P2;Temp;Humidity;BMP_temperature;BMP_pressure;BME280_temperature;BME280_humidity;BME280_pressure;Samples;Min_cycle;Max_cycle;Signal;HPM_P1;HPM_P2
2022/12/27 00:00:50;;;;;;;7.10;3.65;;;;;;;2.01;100.00;95418.47;5126028;27;20557;-79
2022/12/27 00:03:17;;;;;;;5.97;3.55;;;;;;;2.05;100.00;95403.53;5123777;27;20691;-77
2022/12/27 00:05:44;;;;;;;12.50;4.43;;;;;;;2.11;100.00;95418.56;5132657;27;20291;-78
2022/12/27 00:08:13;;;;;;;11.60;5.43;;;;;;;2.09;100.00;95415.31;5132936;27;20205;-78
2022/12/27 00:10:40;;;;;;;4.85;3.20;;;;;;;2.07;100.00;95412.09;5118662;27;20204;-78
2022/12/27 00:13:07;;;;;;;5.57;4.05;;;;;;;2.00;100.00;95411.53;5119278;27;20266;-78
2022/12/27 00:15:34;;;;;;;9.23;4.43;;;;;;;1.97;100.00;95412.03;5125887;27;20201;-78
2022/12/27 00:18:01;;;;;;;6.22;3.90;;;;;;;2.03;100.00;95405.66;5125392;27;20249;-78
2022/12/27 00:20:27;;;;;;;4.43;2.88;;;;;;;1.89;100.00;95415.16;5119083;27;20241;-78
2022/12/27 00:22:54;;;;;;;7.55;3.25;;;;;;;1.92;100.00;95403.94;5118248;27;20302;-79
2022/12/27 00:25:22;;;;;;;4.63;3.10;;;;;;;1.90;100.00;95414.13;5119283;27;20393;-78
2022/12/27 00:27:54;;;;;;;4.88;3.42;;;;;;;1.91;100.00;95397.03;5118857;27;20202;-78
2022/12/27 00:30:20;;;;;;;5.68;3.25;;;;;;;1.93;100.00;95400.22;5132272;27;20636;-78
2022/12/27 00:32:47;;;;;;;8.77;3.83;;;;;;;1.87;100.00;95401.25;5118618;27;20213;-78
2022/12/27 00:35:14;;;;;;;13.35;3.72;;;;;;;1.96;100.00;95407.72;5132834;27;20286;-79
2022/12/27 00:37:41;;;;;;;5.70;3.45;;;;;;;1.70;100.00;95406.69;5117811;27;20254;-78
2022/12/27 00:40:09;;;;;;;4.65;2.97;;;;;;;1.49;100.00;95404.09;5124291;27;20422;-78
2022/12/27 00:42:37;;;;;;;6.57;2.97;;;;;;;1.42;100.00;95407.75;5111684;28;20291;-79
2022/12/27 00:45:05;;;;;;;10.15;4.18;;;;;;;1.33;100.00;95422.59;5120563;27;20238;-78
2022/12/27 00:47:31;;;;;;;11.57;4.97;;;;;;;1.20;100.00;95425.66;5117837;27;20219;-79
2022/12/27 00:49:58;;;;;;;5.78;2.58;;;;;;;1.12;100.00;95428.75;5131677;27;20200;-78
2022/12/27 00:52:25;;;;;;;12.38;5.05;;;;;;;1.16;100.00;95434.41;5131797;27;20204;-78
2022/12/27 00:54:51;;;;;;;10.15;5.57;;;;;;;1.30;100.00;95447.13;5122801;27;20349;-78
2022/12/27 00:57:18;;;;;;;8.38;4.25;;;;;;;1.40;100.00;95444.56;5124915;27;20196;-78
2022/12/27 00:59:47;;;;;;;11.65;6.55;;;;;;;1.40;100.00;95449.91;5120682;27;20209;-78
2022/12/27 01:02:14;;;;;;;11.23;5.95;;;;;;;1.41;100.00;95442.69;5129327;27;20237;-79
2022/12/27 01:04:41;;;;;;;20.42;6.80;;;;;;;1.52;100.00;95436.41;5120876;27;20783;-79
2022/12/27 01:07:07;;;;;;;11.63;6.43;;;;;;;1.47;100.00;95436.38;5114714;27;20664;-78
2022/12/27 01:09:34;;;;;;;14.95;5.47;;;;;;;1.67;100.00;95443.78;5120626;27;20208;-78
2022/12/27 01:12:01;;;;;;;11.13;5.13;;;;;;;1.61;100.00;95439.47;5131720;27;20711;-78
2022/12/27 01:14:28;;;;;;;9.38;4.03;;;;;;;1.59;100.00;95437.03;5130284;27;20240;-78
2022/12/27 01:16:56;;;;;;;22.27;5.57;;;;;;;1.53;100.00;95437.22;5117322;27;20612;-78
2022/12/27 01:19:22;;;;;;;9.15;5.43;;;;;;;1.59;100.00;95433.56;5131731;27;20197;-78
2022/12/27 01:21:49;;;;;;;15.02;5.07;;;;;;;1.49;100.00;95430.78;5117760;27;20228;-78
2022/12/27 01:24:16;;;;;;;9.52;4.78;;;;;;;1.50;100.00;95433.22;5120886;27;20667;-78
2022/12/27 01:26:43;;;;;;;7.05;4.25;;;;;;;1.49;100.00;95430.78;5124579;27;20194;-79
2022/12/27 01:29:11;;;;;;;7.20;3.35;;;;;;;1.43;100.00;95422.72;5120614;27;20250;-79
2022/12/27 01:31:38;;;;;;;9.23;4.80;;;;;;;1.38;100.00;95425.31;5127764;27;20254;-78
2022/12/27 01:34:06;;;;;;;10.73;4.90;;;;;;;1.26;100.00;95426.50;5121569;27;20197;-79
2022/12/27 01:36:33;;;;;;;5.85;3.78;;;;;;;1.23;100.00;95419.81;5126763;27;20731;-79
2022/12/27 01:39:00;;;;;;;34.10;17.92;;;;;;;1.33;100.00;95413.78;5110174;28;20197;-78
2022/12/27 01:44:52;;;;;;;35.45;17.70;;;;;;;1.30;100.00;95412.44;5124013;27;20228;-79
2022/12/27 01:47:26;;;;;;;34.03;16.40;;;;;;;1.26;100.00;95416.66;5123207;27;20207;-79
2022/12/27 01:50:01;;;;;;;31.90;15.70;;;;;;;1.40;100.00;95417.88;5119243;27;20631;-78
2022/12/27 01:52:32;;;;;;;33.47;16.40;;;;;;;1.46;100.00;95415.28;5130860;27;20197;-78
2022/12/27 01:55:06;;;;;;;28.77;13.90;;;;;;;1.54;100.00;95415.63;5120540;27;20197;-78
2022/12/27 01:57:33;;;;;;;28.75;14.65;;;;;;;1.60;100.00;95403.94;5120561;27;20234;-78
2022/12/27 02:00:00;;;;;;;27.25;14.32;;;;;;;1.58;100.00;95399.91;5118685;27;20733;-78
2022/12/27 02:02:27;;;;;;;29.20;14.82;;;;;;;1.66;100.00;95402.91;5128840;27;20228;-78
2022/12/27 02:04:54;;;;;;;8.85;4.82;;;;;;;1.64;100.00;95412.25;5118718;27;20209;-78
2022/12/27 02:07:30;;;;;;;15.27;4.78;;;;;;;1.58;100.00;95407.91;5124154;27;20201;-78
2022/12/27 02:10:00;;;;;;;13.85;3.00;;;;;;;1.43;100.00;95406.69;5122865;27;20220;-78
2022/12/27 02:12:27;;;;;;;12.63;5.55;;;;;;;1.31;100.00;95408.72;5116138;27;20240;-78
2022/12/27 02:14:54;;;;;;;8.88;5.28;;;;;;;1.43;100.00;95404.03;5116521;27;20246;-78
2022/12/27 02:17:24;;;;;;;7.20;4.28;;;;;;;1.45;100.00;95402.97;5117129;27;20193;-79
2022/12/27 02:20:01;;;;;;;12.98;4.75;;;;;;;1.37;100.00;95402.34;5116819;27;20589;-78
2022/12/27 02:26:04;;;;;;;10.48;4.35;;;;;;;1.43;100.00;95401.34;5118557;28;20192;-78
2022/12/27 02:28:58;;;;;;;6.47;4.20;;;;;;;1.34;100.00;95407.41;5105046;28;20288;-78
2022/12/27 02:31:39;;;;;;;8.05;3.15;;;;;;;1.29;100.00;95415.34;5116435;28;20213;-78
2022/12/27 02:34:14;;;;;;;9.20;3.38;;;;;;;1.32;100.00;95414.84;5118640;28;20335;-79
2022/12/27 02:36:43;;;;;;;6.15;3.55;;;;;;;1.46;100.00;95409.94;5124003;28;20231;-79
2022/12/27 02:39:12;;;;;;;5.15;2.40;;;;;;;1.34;100.00;95408.22;5109809;28;20205;-80
2022/12/27 02:53:06;;;;;;;3.65;3.17;;;;;;;1.25;100.00;95409.69;5116591;28;20228;-78
2022/12/27 02:59:02;;;;;;;6.30;2.40;;;;;;;1.38;100.00;95408.50;5110806;28;20205;-78
2022/12/27 03:04:42;;;;;;;2.55;2.30;;;;;;;1.55;100.00;95403.06;5117189;28;20330;-78
2022/12/27 03:07:21;;;;;;;5.80;2.78;;;;;;;1.47;100.00;95411.53;5111563;28;20201;-77
2022/12/27 03:15:56;;;;;;;5.32;2.88;;;;;;;1.04;100.00;95423.84;5116360;28;20212;-78
2022/12/27 03:18:35;;;;;;;3.72;2.75;;;;;;;1.02;100.00;95420.63;5113566;28;20677;-78
2022/12/27 03:26:41;;;;;;;6.35;3.85;;;;;;;1.05;100.00;95420.13;5112301;28;20301;-79
2022/12/27 03:34:46;;;;;;;3.92;2.63;;;;;;;1.32;100.00;95426.34;5126985;28;20214;-78
2022/12/27 03:40:07;;;;;;;2.63;2.42;;;;;;;1.48;100.00;95421.16;5119984;27;20242;-78
2022/12/27 03:46:32;;;;;;;5.43;3.28;;;;;;;1.37;100.00;95421.03;5133324;27;20291;-78
2022/12/27 03:48:13;;;;;;;7.63;3.47;;;;;;;1.37;100.00;95422.88;5120155;27;20204;-78
2022/12/27 03:50:46;;;;;;;5.85;3.28;;;;;;;1.32;100.00;95415.66;5133032;27;20281;-78
2022/12/27 03:53:19;;;;;;;4.00;2.75;;;;;;;1.32;100.00;95420.19;5123314;27;20265;-78
2022/12/27 03:55:46;;;;;;;9.48;3.03;;;;;;;1.18;100.00;95414.44;5126151;27;20278;-78
2022/12/27 03:58:13;;;;;;;5.68;2.38;;;;;;;1.00;100.00;95418.22;5123066;27;20212;-80
2022/12/27 04:00:40;;;;;;;15.80;3.22;;;;;;;1.12;100.00;95420.75;5119261;27;20668;-78
2022/12/27 04:03:06;;;;;;;3.83;2.70;;;;;;;1.12;100.00;95411.94;5122420;27;20655;-78
2022/12/27 04:05:33;;;;;;;8.23;2.28;;;;;;;1.24;100.00;95416.09;5130098;27;20209;-78
2022/12/27 04:35:23;;;;;;;7.47;2.33;;;;;;;1.15;100.00;95444.28;5120322;27;20192;-78
2022/12/27 04:37:50;;;;;;;3.75;2.47;;;;;;;1.04;100.00;95446.00;5118068;27;20201;-78
2022/12/27 04:56:46;;;;;;;15.73;4.97;;;;;;;0.89;100.00;95469.00;5126153;27;20588;-79
2022/12/27 05:02:03;;;;;;;4.60;3.08;;;;;;;1.13;100.00;95474.91;5112157;27;20188;-79
2022/12/27 05:04:31;;;;;;;17.80;4.50;;;;;;;1.12;100.00;95468.78;5123264;27;20197;-79
2022/12/27 05:13:58;;;;;;;6.03;2.97;;;;;;;1.11;100.00;95477.81;5127080;27;20277;-79
2022/12/27 05:15:16;;;;;;;3.10;2.30;;;;;;;1.15;100.00;95452.28;5128496;27;20339;-79
2022/12/27 05:17:42;;;;;;;2.72;2.45;;;;;;;1.24;100.00;95436.63;5120981;27;20207;-78
2022/12/27 05:20:10;;;;;;;17.40;1.90;;;;;;;1.24;100.00;95434.75;5131648;27;20197;-78
2022/12/27 05:25:37;;;;;;;5.88;2.10;;;;;;;1.23;100.00;95433.16;5125565;27;20208;-78
2022/12/27 05:28:07;;;;;;;4.70;1.80;;;;;;;1.14;100.00;95434.66;5125173;27;20245;-78
2022/12/27 05:30:34;;;;;;;5.05;2.70;;;;;;;1.06;100.00;95425.22;5119297;27;20259;-78
2022/12/27 05:33:01;;;;;;;2.45;1.90;;;;;;;1.00;100.00;95423.53;5117984;27;20202;-78
2022/12/27 05:35:29;;;;;;;2.83;1.83;;;;;;;1.04;100.00;95414.00;5130996;27;20674;-78
2022/12/27 05:37:56;;;;;;;3.95;2.92;;;;;;;1.17;100.00;95407.47;5128882;27;20201;-77
2022/12/27 05:40:23;;;;;;;2.00;1.83;;;;;;;1.16;100.00;95400.53;5119963;27;20205;-79
2022/12/27 05:42:50;;;;;;;5.82;2.58;;;;;;;1.07;100.00;95407.38;5117808;27;20923;-78
2022/12/27 05:45:19;;;;;;;3.00;1.88;;;;;;;1.03;100.00;95407.03;5131290;27;20208;-79
2022/12/27 05:47:46;;;;;;;6.18;3.33;;;;;;;1.04;100.00;95402.53;5116869;27;20204;-78
2022/12/27 05:50:13;;;;;;;5.22;2.78;;;;;;;0.94;100.00;95418.41;5130941;27;20234;-78
2022/12/27 05:52:40;;;;;;;3.25;2.00;;;;;;;0.77;100.00;95422.97;5130893;27;20209;-78
2022/12/27 05:55:07;;;;;;;8.25;4.63;;;;;;;0.60;100.00;95439.81;5119541;27;20216;-77
2022/12/27 05:57:34;;;;;;;5.20;2.75;;;;;;;0.49;100.00;95443.38;5114827;27;20560;-77
2022/12/27 06:00:01;;;;;;;8.40;4.05;;;;;;;0.37;100.00;95439.19;5118419;27;20266;-77
2022/12/27 06:02:29;;;;;;;5.53;3.15;;;;;;;0.32;100.00;95458.56;5123761;27;20213;-78
2022/12/27 06:04:55;;;;;;;5.30;3.63;;;;;;;0.25;100.00;95457.94;5122350;27;20197;-77
2022/12/27 06:07:22;;;;;;;5.63;3.53;;;;;;;0.32;100.00;95463.91;5116792;27;20272;-77
2022/12/27 06:09:49;;;;;;;6.97;3.75;;;;;;;0.51;100.00;95467.94;5130545;27;20225;-77
2022/12/27 06:12:16;;;;;;;4.65;2.97;;;;;;;0.58;100.00;95473.88;5130369;27;20213;-78
2022/12/27 06:14:43;;;;;;;15.23;4.43;;;;;;;0.78;100.00;95477.91;5117602;27;20190;-78
2022/12/27 06:17:09;;;;;;;5.20;3.67;;;;;;;1.01;100.00;95470.50;5123666;27;20197;-78
2022/12/27 06:19:37;;;;;;;5.07;2.50;;;;;;;1.39;100.00;95464.31;5122822;27;20208;-77
2022/12/27 06:22:04;;;;;;;5.07;3.10;;;;;;;1.50;100.00;95472.44;5116683;27;20264;-77
2022/12/27 06:24:31;;;;;;;8.07;3.67;;;;;;;1.41;100.00;95459.53;5130410;28;20205;-78
2022/12/27 06:26:58;;;;;;;6.15;3.35;;;;;;;1.81;100.00;95454.88;5130509;28;20201;-77
2022/12/27 06:29:25;;;;;;;3.65;2.53;;;;;;;1.81;100.00;95458.34;5117233;28;20324;-77
2022/12/27 06:31:52;;;;;;;6.65;4.00;;;;;;;1.59;100.00;95462.94;5116618;28;20641;-77
2022/12/27 06:34:19;;;;;;;8.85;3.78;;;;;;;1.37;100.00;95461.06;5116478;28;20978;-77
2022/12/27 06:36:49;;;;;;;7.15;4.18;;;;;;;1.29;100.00;95466.84;5116845;28;20217;-78
2022/12/27 06:39:16;;;;;;;7.28;3.78;;;;;;;1.31;100.00;95472.75;5116793;28;20236;-78
2022/12/27 06:41:43;;;;;;;8.65;4.50;;;;;;;1.49;100.00;95468.97;5123241;28;20201;-79
2022/12/27 06:44:10;;;;;;;8.50;4.15;;;;;;;1.70;100.00;95475.31;5123800;28;20238;-77
2022/12/27 06:46:38;;;;;;;10.55;4.78;;;;;;;1.80;100.00;95483.44;5118019;28;20208;-78
2022/12/27 06:49:05;;;;;;;4.65;2.97;;;;;;;1.76;100.00;95466.31;5117007;28;20213;-77
2022/12/27 06:51:33;;;;;;;12.25;3.88;;;;;;;1.85;100.00;95472.00;5130249;28;20258;-78
2022/12/27 06:54:01;;;;;;;9.95;4.18;;;;;;;1.85;100.00;95472.00;5130109;28;20283;-78
2022/12/27 06:56:28;;;;;;;10.25;4.13;;;;;;;2.09;100.00;95468.78;5124706;28;20656;-77
2022/12/27 06:58:54;;;;;;;4.35;3.30;;;;;;;2.14;100.00;95460.81;5116882;28;20606;-78
2022/12/27 07:01:24;;;;;;;6.50;3.42;;;;;;;2.34;100.00;95454.00;5122476;28;20232;-77
2022/12/27 07:03:53;;;;;;;10.43;4.65;;;;;;;2.49;100.00;95452.25;5125840;28;20552;-77
2022/12/27 07:06:20;;;;;;;15.35;6.97;;;;;;;2.47;100.00;95448.22;5130367;28;20205;-78
2022/12/27 07:08:48;;;;;;;15.52;5.03;;;;;;;2.60;100.00;95453.13;5127698;28;20258;-78
2022/12/27 07:11:18;;;;;;;10.98;3.10;;;;;;;2.52;100.00;95450.94;5119337;27;20232;-77
2022/12/27 07:13:47;;;;;;;11.20;3.75;;;;;;;2.44;100.00;95443.41;5118877;27;20244;-77
2022/12/27 07:16:15;;;;;;;10.18;5.25;;;;;;;2.59;99.33;95448.06;5123213;27;20219;-77
2022/12/27 07:18:42;;;;;;;9.90;5.55;;;;;;;2.81;99.61;95449.53;5117576;27;20205;-77
2022/12/27 07:21:12;;;;;;;13.85;6.03;;;;;;;3.01;98.57;95442.66;5133453;27;20693;-77
2022/12/27 07:23:39;;;;;;;15.88;8.80;;;;;;;3.11;97.63;95445.41;5119739;27;20200;-78
2022/12/27 07:26:09;;;;;;;16.58;7.03;;;;;;;3.23;97.26;95448.69;5134199;27;20200;-78
2022/12/27 07:28:37;;;;;;;21.90;5.88;;;;;;;3.48;96.50;95432.72;5134143;27;20205;-78
2022/12/27 07:31:08;;;;;;;16.23;7.20;;;;;;;3.44;96.32;95436.97;5120713;27;20255;-78
2022/12/27 07:33:35;;;;;;;8.52;4.03;;;;;;;3.26;95.55;95437.47;5133343;27;20248;-79
2022/12/27 07:36:02;;;;;;;13.75;8.20;;;;;;;2.80;96.51;95442.56;5134290;27;20197;-79
2022/12/27 07:38:29;;;;;;;4.43;4.03;;;;;;;2.50;97.97;95442.38;5119911;27;20728;-79
2022/12/27 07:40:59;;;;;;;18.05;8.98;;;;;;;2.48;98.50;95445.28;5120079;27;20201;-78
2022/12/27 07:43:26;;;;;;;14.32;7.85;;;;;;;2.45;98.91;95445.03;5120175;27;20312;-79
2022/12/27 07:45:54;;;;;;;13.00;4.97;;;;;;;2.44;99.25;95449.56;5118842;27;20739;-79
2022/12/27 07:48:21;;;;;;;19.30;7.55;;;;;;;2.39;100.00;95446.03;5120872;27;20200;-79
2022/12/27 07:50:55;;;;;;;11.52;7.68;;;;;;;2.65;100.00;95437.13;5133244;27;20740;-79
2022/12/27 07:53:22;;;;;;;15.10;8.00;;;;;;;2.92;100.00;95438.88;5122929;27;20301;-78
2022/12/27 07:55:49;;;;;;;15.98;5.97;;;;;;;3.00;98.67;95441.09;5127050;27;20201;-79
2022/12/27 07:58:17;;;;;;;31.90;9.07;;;;;;;3.30;98.75;95449.25;5123585;27;20573;-79
2022/12/27 08:00:45;;;;;;;14.98;8.57;;;;;;;3.36;96.28;95442.84;5119376;27;20292;-79
2022/12/27 08:03:14;;;;;;;13.13;7.15;;;;;;;3.64;96.07;95443.47;5122032;27;20197;-79
2022/12/27 08:05:46;;;;;;;15.70;8.15;;;;;;;3.54;93.83;95437.03;5126497;27;20202;-77
2022/12/27 08:08:15;;;;;;;24.30;10.25;;;;;;;3.66;93.99;95455.53;5114795;27;20231;-79
2022/12/27 08:10:42;;;;;;;21.00;7.57;;;;;;;3.71;93.97;95454.75;5126976;27;20258;-78
2022/12/27 08:13:09;;;;;;;22.42;10.77;;;;;;;3.85;94.03;95458.53;5126122;27;20233;-80
2022/12/27 08:15:40;;;;;;;19.83;10.80;;;;;;;3.93;94.26;95455.34;5119596;27;20200;-79
2022/12/27 08:18:06;;;;;;;18.95;9.23;;;;;;;4.10;94.45;95461.25;5118953;27;20266;-78
2022/12/27 08:20:35;;;;;;;26.58;10.95;;;;;;;4.46;93.28;95459.41;5125191;27;20632;-78
2022/12/27 08:23:02;;;;;;;26.42;11.27;;;;;;;4.57;91.47;95454.84;5125082;27;20208;-78
2022/12/27 08:25:29;;;;;;;23.13;11.63;;;;;;;4.74;91.87;95455.38;5112165;28;20667;-78
2022/12/27 08:28:03;;;;;;;30.13;10.52;;;;;;;4.89;90.77;95435.75;5126004;27;20960;-79
2022/12/27 08:30:30;;;;;;;17.98;9.82;;;;;;;4.79;89.55;95446.50;5121177;27;20197;-79
2022/12/27 08:32:56;;;;;;;20.40;10.57;;;;;;;4.93;89.12;95456.41;5118843;27;20201;-78
2022/12/27 08:35:23;;;;;;;14.65;8.52;;;;;;;5.06;89.79;95448.88;5123737;27;20197;-79
2022/12/27 08:37:51;;;;;;;23.30;9.30;;;;;;;5.13;88.64;95444.81;5127224;27;20205;-78
2022/12/27 08:40:18;;;;;;;19.67;10.55;;;;;;;5.41;89.19;95454.13;5132190;27;20807;-79
2022/12/27 08:42:46;;;;;;;30.17;8.32;;;;;;;5.59;87.84;95436.59;5115829;27;20229;-79
2022/12/27 08:45:13;;;;;;;20.20;9.00;;;;;;;5.81;86.94;95433.53;5120921;27;20208;-78
2022/12/27 08:47:40;;;;;;;16.88;7.72;;;;;;;5.98;86.41;95436.69;5118774;27;20258;-78
2022/12/27 08:50:08;;;;;;;18.67;8.75;;;;;;;6.07;84.78;95424.25;5132274;27;20197;-78
2022/12/27 08:52:35;;;;;;;17.88;8.65;;;;;;;6.15;84.39;95431.72;5127763;27;20592;-78
2022/12/27 08:55:07;;;;;;;22.88;10.38;;;;;;;6.30;85.52;95428.91;5121321;27;20308;-78
2022/12/27 08:57:36;;;;;;;17.65;10.60;;;;;;;6.18;84.55;95423.09;5121419;27;20269;-78
2022/12/27 09:00:07;;;;;;;20.50;9.90;;;;;;;6.40;84.81;95434.25;5123411;27;20204;-79
2022/12/27 09:02:34;;;;;;;18.45;9.02;;;;;;;6.59;83.97;95415.50;5118336;27;20621;-78
2022/12/27 09:05:01;;;;;;;17.63;9.25;;;;;;;6.87;83.32;95413.88;5118146;27;20198;-77
2022/12/27 09:07:27;;;;;;;22.88;10.77;;;;;;;6.85;82.21;95397.22;5117845;27;20205;-79
2022/12/27 09:09:57;;;;;;;16.75;9.05;;;;;;;6.88;81.89;95412.81;5118275;27;20290;-79
2022/12/27 09:12:25;;;;;;;33.45;18.25;;;;;;;6.90;81.53;95407.94;5111217;28;20541;-79
2022/12/27 09:14:52;;;;;;;15.88;8.07;;;;;;;6.94;80.97;95411.69;5124785;27;20212;-80
2022/12/27 09:17:18;;;;;;;21.95;11.48;;;;;;;6.99;81.03;95394.66;5109682;28;20612;-78
2022/12/27 09:19:51;;;;;;;19.70;8.98;;;;;;;7.24;80.94;95393.59;5124684;27;20544;-78
2022/12/27 09:22:17;;;;;;;19.05;9.52;;;;;;;7.35;80.49;95373.50;5119567;27;20237;-79
2022/12/27 09:24:46;;;;;;;16.85;8.18;;;;;;;7.58;80.73;95380.75;5117727;27;20205;-79
2022/12/27 09:27:16;;;;;;;27.73;15.65;;;;;;;7.68;78.43;95372.50;5122570;27;20229;-79
2022/12/27 09:29:47;;;;;;;15.10;8.38;;;;;;;7.73;78.89;95380.53;5124381;27;20701;-79
2022/12/27 09:32:18;;;;;;;11.95;6.80;;;;;;;7.82;77.42;95372.59;5121440;27;20197;-80
2022/12/27 09:34:44;;;;;;;11.40;7.35;;;;;;;7.81;77.20;95371.78;5117179;27;20221;-78
2022/12/27 09:37:14;;;;;;;10.75;5.43;;;;;;;7.82;76.90;95368.00;5131522;27;20656;-79
2022/12/27 09:39:41;;;;;;;15.15;7.25;;;;;;;7.99;77.62;95356.69;5131357;27;20223;-79
2022/12/27 09:42:21;;;;;;;19.20;6.95;;;;;;;8.16;75.46;95361.56;5131124;27;20273;-78
2022/12/27 09:44:55;;;;;;;10.73;6.20;;;;;;;8.30;74.74;95351.63;5130827;27;20405;-78
2022/12/27 09:47:27;;;;;;;11.20;5.00;;;;;;;8.42;74.29;95351.19;5117055;27;20198;-78
2022/12/27 09:49:58;;;;;;;13.38;5.60;;;;;;;8.68;74.27;95351.53;5130878;27;20201;-79
2022/12/27 09:52:29;;;;;;;10.35;5.32;;;;;;;8.61;74.42;95345.75;5128166;27;20249;-79
2022/12/27 09:55:01;;;;;;;16.90;6.60;;;;;;;8.75;73.67;95335.75;5120685;27;20216;-78
2022/12/27 09:57:35;;;;;;;16.73;5.95;;;;;;;8.81;73.69;95350.75;5112457;27;20200;-80
2022/12/27 10:00:07;;;;;;;11.50;6.10;;;;;;;8.92;72.82;95346.75;5122651;27;20533;-78
2022/12/27 10:02:34;;;;;;;16.80;10.27;;;;;;;8.93;71.87;95356.47;5116916;27;20200;-78
2022/12/27 10:05:03;;;;;;;15.98;7.63;;;;;;;9.01;71.33;95355.81;5117410;27;20731;-77
2022/12/27 10:07:42;;;;;;;11.25;6.28;;;;;;;9.02;71.85;95348.50;5117686;27;20260;-78
2022/12/27 10:10:18;;;;;;;13.35;5.85;;;;;;;9.10;72.49;95343.19;5116810;27;20229;-78
2022/12/27 10:13:11;;;;;;;13.50;5.45;;;;;;;9.31;72.38;95321.13;5120237;27;20225;-79
2022/12/27 10:15:50;;;;;;;11.48;5.97;;;;;;;9.24;72.65;95316.94;5117859;27;20213;-78
2022/12/27 10:18:26;;;;;;;14.00;6.05;;;;;;;9.23;70.91;95312.66;5116880;28;20871;-77
2022/12/27 10:21:05;;;;;;;12.80;6.25;;;;;;;9.22;71.00;95307.53;5120543;27;20193;-79
2022/12/27 10:23:34;;;;;;;9.98;5.30;;;;;;;9.40;71.69;95305.81;5123446;27;20747;-78
2022/12/27 10:26:05;;;;;;;10.80;5.68;;;;;;;9.51;70.20;95294.47;5122417;27;20200;-78
2022/12/27 10:28:38;;;;;;;9.80;4.93;;;;;;;9.68;70.40;95304.66;5116699;28;20201;-78
2022/12/27 10:31:14;;;;;;;10.77;5.05;;;;;;;9.46;70.88;95308.09;5116793;28;20577;-78
2022/12/27 10:33:42;;;;;;;13.82;5.68;;;;;;;9.59;69.55;95311.88;5130792;28;20245;-77
2022/12/27 10:36:13;;;;;;;10.40;6.07;;;;;;;9.69;69.17;95310.88;5114317;28;20197;-78
2022/12/27 10:38:39;;;;;;;13.68;5.00;;;;;;;9.58;69.74;95312.97;5120051;28;20201;-77
2022/12/27 10:41:19;;;;;;;11.93;5.28;;;;;;;9.63;70.09;95310.97;5130800;28;20217;-77
2022/12/27 10:43:51;;;;;;;7.00;4.30;;;;;;;9.53;70.00;95326.63;5118175;28;20212;-79
2022/12/27 10:46:22;;;;;;;25.88;9.85;;;;;;;9.64;70.07;95303.66;5124313;27;20207;-79
2022/12/27 10:48:57;;;;;;;14.05;6.72;;;;;;;9.80;69.40;95299.50;5127290;27;20260;-77
2022/12/27 10:51:25;;;;;;;14.20;7.47;;;;;;;9.91;69.71;95311.69;5121630;27;20203;-78
2022/12/27 10:54:00;;;;;;;15.68;8.98;;;;;;;10.14;68.75;95306.28;5134315;27;20268;-78
2022/12/27 10:56:29;;;;;;;13.73;6.80;;;;;;;10.16;68.47;95317.59;5127907;27;20708;-78
2022/12/27 10:59:07;;;;;;;13.48;7.35;;;;;;;10.15;69.04;95318.72;5120650;27;20193;-77
2022/12/27 11:01:35;;;;;;;8.45;5.72;;;;;;;9.95;68.62;95307.28;5122700;27;20196;-78
2022/12/27 11:04:14;;;;;;;25.88;14.10;;;;;;;10.12;69.34;95305.78;5127737;27;20660;-78
2022/12/27 11:06:43;;;;;;;22.95;13.35;;;;;;;10.38;68.38;95287.84;5127005;27;20249;-78
2022/12/27 11:09:28;;;;;;;23.70;13.95;;;;;;;10.56;67.57;95275.97;5119939;27;20959;-78
2022/12/27 11:12:15;;;;;;;26.42;14.32;;;;;;;10.47;67.60;95272.44;5131158;27;20282;-78
2022/12/27 11:14:54;;;;;;;25.52;15.55;;;;;;;10.28;68.00;95277.25;5113658;28;20213;-78
2022/12/27 11:17:24;;;;;;;24.02;11.55;;;;;;;10.41;67.77;95279.09;5113656;28;20190;-78
2022/12/27 11:19:51;;;;;;;29.20;15.98;;;;;;;10.54;67.56;95282.81;5127622;27;20691;-80
2022/12/27 11:22:18;;;;;;;28.40;16.35;;;;;;;10.54;67.42;95280.09;5133284;27;20201;-79
2022/12/27 11:24:48;;;;;;;33.80;17.27;;;;;;;10.49;67.28;95274.84;5120027;27;20276;-78
2022/12/27 11:27:23;;;;;;;31.90;17.23;;;;;;;10.51;66.81;95268.00;5124947;27;20197;-78
2022/12/27 11:29:51;;;;;;;32.80;17.83;;;;;;;10.60;66.68;95271.56;5130209;27;20189;-78
2022/12/27 11:32:22;;;;;;;26.10;14.00;;;;;;;10.62;66.66;95274.75;5122847;27;20280;-77
2022/12/27 11:34:53;;;;;;;32.58;16.85;;;;;;;10.62;67.05;95277.47;5131272;27;20259;-79
2022/12/27 11:37:24;;;;;;;33.13;16.90;;;;;;;10.58;67.51;95273.75;5122010;27;20197;-78
2022/12/27 11:39:53;;;;;;;25.48;14.65;;;;;;;10.76;66.95;95279.28;5118812;27;20262;-79
2022/12/27 11:42:29;;;;;;;30.33;16.25;;;;;;;10.82;66.63;95283.44;5121003;27;20299;-77
2022/12/27 11:45:05;;;;;;;35.00;18.25;;;;;;;11.00;66.52;95287.81;5120128;27;20333;-78
2022/12/27 11:47:40;;;;;;;43.20;20.23;;;;;;;11.00;66.12;95285.09;5119280;27;20194;-77
2022/12/27 11:50:39;;;;;;;40.75;20.17;;;;;;;11.34;66.05;95279.75;5133784;27;20205;-78
2022/12/27 11:53:21;;;;;;;38.40;21.00;;;;;;;11.58;64.40;95278.53;5121126;27;20197;-78
2022/12/27 11:56:12;;;;;;;39.30;19.80;;;;;;;12.07;63.93;95286.25;5119093;27;20236;-78
2022/12/27 11:58:58;;;;;;;36.58;19.92;;;;;;;12.75;62.18;95281.78;5122909;27;20201;-78
2022/12/27 12:01:53;;;;;;;32.67;17.75;;;;;;;13.04;60.86;95282.97;5122384;27;20287;-78
2022/12/27 12:04:49;;;;;;;32.42;17.02;;;;;;;12.50;61.79;95277.22;5119655;27;20197;-78
2022/12/27 12:07:36;;;;;;;31.98;17.10;;;;;;;12.71;62.24;95267.25;5119060;27;20742;-80
2022/12/27 12:10:16;;;;;;;39.17;19.65;;;;;;;12.61;61.62;95278.47;5119900;27;20576;-80
2022/12/27 12:13:02;;;;;;;35.78;19.95;;;;;;;12.60;61.99;95276.88;5123284;27;20768;-80
2022/12/27 12:16:21;;;;;;;35.00;18.85;;;;;;;12.61;61.32;95281.19;5126501;27;20221;-79
2022/12/27 12:19:07;;;;;;;34.28;19.90;;;;;;;12.58;61.66;95284.56;5069102;28;20191;-79
2022/12/27 12:21:40;;;;;;;35.00;19.25;;;;;;;12.60;61.89;95282.31;5068553;28;20195;-79
2022/12/27 12:24:35;;;;;;;31.48;17.98;;;;;;;12.52;61.45;95264.13;5110898;27;20540;-79
2022/12/27 12:27:21;;;;;;;29.90;16.27;;;;;;;12.31;62.19;95279.50;5125769;27;20613;-79
2022/12/27 12:30:10;;;;;;;27.92;16.15;;;;;;;12.29;62.20;95282.56;5115041;27;20194;-79
2022/12/27 12:32:53;;;;;;;28.55;14.85;;;;;;;12.31;62.74;95274.06;5119662;27;20194;-80
2022/12/27 12:35:48;;;;;;;26.33;14.02;;;;;;;12.27;63.36;95276.66;5113200;28;20266;-80
2022/12/27 12:38:22;;;;;;;24.77;13.80;;;;;;;12.36;63.59;95277.41;5123732;27;20197;-80
2022/12/27 12:41:27;;;;;;;26.67;14.43;;;;;;;12.13;65.34;95288.81;5125934;27;20277;-80
2022/12/27 12:44:29;;;;;;;22.75;12.82;;;;;;;12.07;65.97;95288.16;5063641;28;20648;-80
2022/12/27 12:47:04;;;;;;;28.02;14.60;;;;;;;12.10;65.89;95291.03;5122399;27;20601;-80
2022/12/27 12:49:48;;;;;;;27.52;15.07;;;;;;;12.21;64.87;95296.13;5118510;27;20950;-80
2022/12/27 12:52:42;;;;;;;25.50;14.55;;;;;;;12.24;64.17;95290.88;5131916;27;20596;-80
2022/12/27 12:55:30;;;;;;;26.50;14.93;;;;;;;12.31;64.45;95290.38;5119648;27;20230;-80
2022/12/27 12:58:11;;;;;;;31.10;15.57;;;;;;;12.52;64.04;95299.44;5119622;27;20182;-80
2022/12/27 13:01:04;;;;;;;28.77;16.02;;;;;;;12.55;63.30;95301.53;5116041;27;20185;-79
2022/12/27 13:03:49;;;;;;;33.60;17.33;;;;;;;12.40;64.14;95300.13;5132588;27;20189;-80
2022/12/27 13:06:42;;;;;;;28.60;15.45;;;;;;;12.13;65.09;95302.38;5121863;27;20193;-79
2022/12/27 13:09:22;;;;;;;26.83;16.35;;;;;;;11.93;65.58;95307.31;5118680;27;20217;-79
2022/12/27 13:11:58;;;;;;;33.55;15.77;;;;;;;11.88;66.54;95315.66;5117198;27;20258;-79
2022/12/27 13:14:42;;;;;;;25.30;12.35;;;;;;;11.88;67.13;95321.06;5121310;27;20278;-80
2022/12/27 13:17:18;;;;;;;16.80;7.80;;;;;;;11.90;67.93;95313.38;5112257;27;20833;-77
2022/12/27 13:19:57;;;;;;;18.48;8.82;;;;;;;12.00;68.20;95323.97;5125326;27;20563;-77
2022/12/27 13:22:38;;;;;;;22.70;10.68;;;;;;;12.04;68.12;95319.47;5122675;27;20313;-78
2022/12/27 13:25:24;;;;;;;10.35;5.68;;;;;;;12.08;68.71;95331.28;5115160;27;20601;-78
2022/12/27 13:27:58;;;;;;;6.85;3.83;;;;;;;12.10;68.56;95334.50;5116972;27;20200;-78
2022/12/27 13:30:33;;;;;;;8.82;4.00;;;;;;;12.06;68.80;95338.16;5118564;27;20634;-78
2022/12/27 13:33:12;;;;;;;7.05;3.78;;;;;;;12.13;68.66;95354.00;5117097;27;20302;-78